Detall de PIREP

Printer-friendly versionPDF version

[2014/10/17 07:06:00]
Flight IATA:CT3254
Pilot Number:042
Company ICAO:CAT
Aircraft Type:B463/A
PAX:29
Aircraft Registration:PAX
Departing Airport: LEPA
Destination Airport: LDZA
Alternate Airport:LOWW
Online: VATSIM
Route:MEROS B16 LUMAS UM985 ABN UZ388 LUMAV UM859 CHI UL614 LABIN L614 PUL P11 CRE W45 KULEN M986 KOTOR
Flight Level:F330
No Slew and time accel
No pause
Crash detect
Detect pilot in Cockpit between each 30 and 45 minutes
07:06 Zero fuel Weight: 80445 Lbs, Fuel Weight: 22762 Lbs
07:06 VATSIM:LEPA 170600Z 15001KT 9999 FEW008 18/18 Q1017 NOSIG
07:06 VATSIM:LDZA 170600Z 00000KT CAVOK 17/15 Q1011 NOSIG
07:13 Parking Brakes off
07:19 Take-off
07:19 Take off Weight: 102307 Lbs
07:19 Wind: 155º @ 001 Knots Heading: 238º
07:19 POS N39º 33´ 10´´ E002º 43´ 23´´
07:19 Flaps:2 at 156 Knots
07:19 Gear Up: 155 Knots
07:20 Flaps:1 at 145 Knots
07:21 Flaps:0 at 185 Knots
07:34 Wind:245º@027 Knots Heading: 059º Ground Speed: 390 Knots Altitude 26902 ft
07:40 TOC
07:40 Fuel Weight: 18745 Lb
07:49 Wind:248º@045 Knots Heading: 005º Ground Speed: 435 Knots Altitude 33090 ft
08:04 Wind:251º@068 Knots Heading: 034º Ground Speed: 469 Knots Altitude 33024 ft
08:19 Wind:254º@064 Knots Heading: 051º Ground Speed: 472 Knots Altitude 32979 ft
08:34 Wind:270º@080 Knots Heading: 066º Ground Speed: 487 Knots Altitude 33097 ft
08:49 Wind:278º@078 Knots Heading: 098º Ground Speed: 490 Knots Altitude 32998 ft
08:52 TOD
08:52 Fuel Weight: 14038 Lb
09:03 Flaps:1 at 197 Knots
09:04 Wind:263º@032 Knots Heading: 043º Ground Speed: 260 Knots Altitude 10498 ft
09:09 Flaps:2 at 182 Knots
09:11 Flaps:3 at 182 Knots
09:11 Gear Down: 182 Knots
09:14 TouchDown:Rate -191 ft/min Speed: 123 Knots
09:14 VATSIM:LDZA 170800Z 22008KT CAVOK 20/16 Q1011 NOSIG
09:14 Land
09:14 Wind:220º@008 Knots
09:14 Heading: 049º
09:14 Flight Duration: 01:55
09:14 Landing Weight: 93735 Lbs
09:14 POS N45º 44´ 33´´ E016º 04´ 05´´
09:20 Parking brakes on
09:20 Block to Block Duration: 02:07
09:20 Final Fuel: 12680 Lbls
09:20 Spent Fuel: 10081 Lbls
09:20 Flight Length: 787 NM
09:20 TOD Land Length: 106 NM

Exportar CSV

Powered by Drupal - Modified by Danger4k